Time;durP1;ratioP1;P1;durP2;ratioP2;P2;SDS_P1;SDS_P2;PMS_P1;PMS_P2;Temp;Humidity;BMP_temperature;BMP_pressure;BME280_temperature;BME280_humidity;BME280_pressure;Samples;Min_cycle;Max_cycle;Signal;HPM_P1;HPM_P2
2023/10/30 00:01:28;;;;;;;7.10;1.80;;;11.00;99.90;;;;;;5075632;28;20063;-67
2023/10/30 00:03:54;;;;;;;7.18;2.10;;;11.00;99.90;;;;;;5074848;28;20074;-66
2023/10/30 00:06:19;;;;;;;6.10;1.95;;;11.00;99.90;;;;;;5076226;28;20522;-66
2023/10/30 00:08:45;;;;;;;12.23;2.75;;;11.00;99.90;;;;;;5073730;28;20460;-66
2023/10/30 00:11:10;;;;;;;8.00;2.45;;;10.90;99.90;;;;;;5075400;28;20380;-66
2023/10/30 00:13:36;;;;;;;9.23;2.05;;;10.90;99.90;;;;;;5075687;28;20457;-66
2023/10/30 00:16:02;;;;;;;11.48;2.30;;;10.90;99.90;;;;;;5075872;28;20029;-66
2023/10/30 00:18:28;;;;;;;7.85;2.17;;;10.90;99.90;;;;;;5076082;28;20052;-66
2023/10/30 00:20:53;;;;;;;5.88;2.20;;;10.90;99.90;;;;;;5075443;28;20082;-66
2023/10/30 00:23:19;;;;;;;12.00;2.17;;;11.00;99.90;;;;;;5075402;28;20102;-67
2023/10/30 00:25:45;;;;;;;9.18;2.28;;;10.90;99.90;;;;;;5075670;28;20456;-66
2023/10/30 00:28:10;;;;;;;11.60;2.45;;;10.90;99.90;;;;;;5075291;28;20033;-66
2023/10/30 00:30:36;;;;;;;14.57;2.53;;;10.90;99.90;;;;;;5075176;28;20063;-66
2023/10/30 00:33:01;;;;;;;13.88;2.80;;;10.90;99.90;;;;;;5074549;28;20024;-66
2023/10/30 00:35:27;;;;;;;11.15;3.10;;;11.00;99.90;;;;;;5075342;28;20024;-66
2023/10/30 00:37:52;;;;;;;12.57;2.70;;;11.00;99.90;;;;;;5075357;28;20377;-66
2023/10/30 00:40:19;;;;;;;19.70;2.75;;;10.90;99.90;;;;;;5075122;28;20107;-66
2023/10/30 00:42:44;;;;;;;8.77;1.95;;;11.00;99.90;;;;;;5074822;28;20032;-66
2023/10/30 00:45:10;;;;;;;11.88;2.40;;;11.00;99.90;;;;;;5075121;28;20419;-66
2023/10/30 00:47:38;;;;;;;9.15;2.03;;;11.00;99.90;;;;;;5075221;28;20035;-66
2023/10/30 00:50:05;;;;;;;9.27;2.40;;;11.00;99.90;;;;;;5075391;28;20028;-66
2023/10/30 00:52:30;;;;;;;10.25;1.85;;;11.00;99.90;;;;;;5075287;28;20082;-66
2023/10/30 00:54:56;;;;;;;10.43;2.28;;;11.10;99.90;;;;;;5074941;28;20415;-67
2023/10/30 00:57:22;;;;;;;11.80;2.15;;;11.10;99.90;;;;;;5073978;28;20045;-66
2023/10/30 00:59:48;;;;;;;11.40;2.40;;;11.20;99.90;;;;;;5074511;28;20028;-66
2023/10/30 01:02:14;;;;;;;8.05;1.90;;;11.20;99.90;;;;;;5074823;28;20413;-66
2023/10/30 01:04:39;;;;;;;10.75;2.45;;;11.20;99.90;;;;;;5074665;28;20035;-66
2023/10/30 01:07:05;;;;;;;12.77;2.13;;;11.30;99.90;;;;;;5074842;28;20024;-66
2023/10/30 01:09:30;;;;;;;12.65;2.70;;;11.30;99.90;;;;;;5074125;28;20127;-66
2023/10/30 01:11:56;;;;;;;8.32;2.10;;;11.30;99.90;;;;;;5074428;28;20064;-66
2023/10/30 01:14:22;;;;;;;7.13;2.00;;;11.40;99.90;;;;;;5074696;28;20031;-66
2023/10/30 01:16:49;;;;;;;9.75;2.22;;;11.40;99.90;;;;;;5074580;28;20024;-66
2023/10/30 01:19:15;;;;;;;7.60;1.92;;;11.40;99.90;;;;;;5074274;28;20040;-66
2023/10/30 01:21:41;;;;;;;10.48;2.00;;;11.40;99.90;;;;;;5071500;28;20021;-66
2023/10/30 01:24:08;;;;;;;13.63;2.08;;;11.40;99.90;;;;;;5074302;28;20029;-66
2023/10/30 01:26:34;;;;;;;6.45;1.60;;;11.30;99.90;;;;;;5074050;28;20055;-66
2023/10/30 01:29:00;;;;;;;8.32;2.03;;;11.30;99.90;;;;;;5074319;28;20453;-66
2023/10/30 01:31:27;;;;;;;10.45;1.70;;;11.20;99.90;;;;;;5074346;28;20032;-66
2023/10/30 01:33:56;;;;;;;6.25;1.45;;;11.20;99.90;;;;;;5073402;28;20051;-65
2023/10/30 01:36:22;;;;;;;10.50;1.95;;;11.10;99.90;;;;;;5074039;28;20024;-65
2023/10/30 01:38:48;;;;;;;8.48;1.77;;;11.00;99.90;;;;;;5072723;28;20063;-66
2023/10/30 01:41:13;;;;;;;6.63;1.80;;;11.00;99.90;;;;;;5073997;28;20461;-66
2023/10/30 01:43:39;;;;;;;9.52;1.95;;;11.00;99.90;;;;;;5074194;28;20103;-66
2023/10/30 01:46:05;;;;;;;7.15;1.63;;;10.90;99.90;;;;;;5072776;28;20067;-66
2023/10/30 01:48:35;;;;;;;6.90;1.83;;;10.90;99.90;;;;;;5074250;28;20028;-66
2023/10/30 01:51:02;;;;;;;10.90;2.10;;;10.90;99.90;;;;;;5074137;28;20025;-66
2023/10/30 01:53:31;;;;;;;8.82;1.60;;;10.80;99.90;;;;;;5073486;28;20472;-66
2023/10/30 01:55:57;;;;;;;7.43;1.90;;;10.70;99.90;;;;;;5073563;28;20345;-66
2023/10/30 01:58:23;;;;;;;9.52;2.03;;;10.70;99.90;;;;;;5073358;28;20078;-66
2023/10/30 02:00:50;;;;;;;10.75;2.17;;;10.70;99.90;;;;;;5073624;28;20476;-66
2023/10/30 02:03:16;;;;;;;5.80;1.80;;;10.80;99.90;;;;;;5073714;28;20032;-66
2023/10/30 02:05:43;;;;;;;6.35;1.85;;;10.70;99.90;;;;;;5072878;28;20024;-66
2023/10/30 02:08:09;;;;;;;7.13;2.22;;;10.70;99.90;;;;;;5072986;28;20025;-65
2023/10/30 02:10:35;;;;;;;9.98;2.17;;;10.70;99.90;;;;;;5072908;28;20033;-66
2023/10/30 02:13:05;;;;;;;9.77;1.80;;;10.60;99.90;;;;;;5073257;28;20170;-66
2023/10/30 02:15:31;;;;;;;4.97;1.48;;;10.60;99.90;;;;;;5073555;28;20031;-66
2023/10/30 02:17:56;;;;;;;5.55;1.70;;;10.60;99.90;;;;;;5072939;28;20036;-66
2023/10/30 02:20:22;;;;;;;9.38;1.60;;;10.60;99.90;;;;;;5071398;28;20388;-66
2023/10/30 02:22:48;;;;;;;7.10;1.70;;;10.50;99.90;;;;;;5071788;28;20032;-66
2023/10/30 02:25:22;;;;;;;7.57;1.90;;;10.50;99.90;;;;;;5073246;28;20029;-66
2023/10/30 02:27:48;;;;;;;9.52;1.85;;;10.40;99.90;;;;;;5073090;28;20028;-65
2023/10/30 02:30:14;;;;;;;10.32;2.15;;;10.40;99.90;;;;;;5073145;28;20024;-66
2023/10/30 02:32:44;;;;;;;7.65;1.60;;;10.30;99.90;;;;;;5072536;28;20040;-66
2023/10/30 02:35:16;;;;;;;13.55;2.50;;;10.20;99.90;;;;;;5072920;28;20032;-66
2023/10/30 02:37:42;;;;;;;15.90;2.58;;;10.20;99.90;;;;;;5073181;28;20102;-66
2023/10/30 02:40:08;;;;;;;9.25;1.95;;;10.20;99.90;;;;;;5073356;28;20025;-66
2023/10/30 02:42:34;;;;;;;13.52;2.65;;;10.20;99.90;;;;;;5073132;28;20078;-65
2023/10/30 02:45:00;;;;;;;11.02;2.42;;;10.10;99.90;;;;;;5072725;28;20408;-66
2023/10/30 02:47:26;;;;;;;12.93;2.30;;;10.10;99.90;;;;;;5072812;28;20032;-66
2023/10/30 02:49:51;;;;;;;10.38;2.35;;;10.10;99.90;;;;;;5073071;28;20050;-66
2023/10/30 02:52:18;;;;;;;13.82;2.95;;;10.10;99.90;;;;;;5071752;28;20078;-66
2023/10/30 02:54:44;;;;;;;13.38;2.72;;;10.10;99.90;;;;;;5073360;28;20132;-66
2023/10/30 02:57:09;;;;;;;19.75;3.33;;;10.10;99.90;;;;;;5072138;28;20024;-66
2023/10/30 02:59:35;;;;;;;13.52;2.67;;;10.10;99.90;;;;;;5073005;28;20031;-66
2023/10/30 03:02:01;;;;;;;12.10;2.97;;;10.10;99.90;;;;;;5073197;28;20025;-66
2023/10/30 03:04:26;;;;;;;13.73;3.63;;;10.10;99.90;;;;;;5072620;28;20032;-66
2023/10/30 03:06:52;;;;;;;11.55;2.50;;;10.10;99.90;;;;;;5072482;28;20461;-66
2023/10/30 03:09:17;;;;;;;13.10;2.67;;;10.10;99.90;;;;;;5072580;28;20070;-65
2023/10/30 03:11:43;;;;;;;17.77;3.42;;;10.10;99.90;;;;;;5073632;28;20068;-65
2023/10/30 03:14:08;;;;;;;8.60;2.47;;;10.00;99.90;;;;;;5072981;28;20102;-65
2023/10/30 03:16:34;;;;;;;14.48;3.13;;;10.00;99.90;;;;;;5072958;28;20021;-65
2023/10/30 03:18:59;;;;;;;17.02;3.05;;;10.00;99.90;;;;;;5072561;28;20438;-65
2023/10/30 03:21:25;;;;;;;14.18;2.90;;;10.00;99.90;;;;;;5072432;28;20372;-65
2023/10/30 03:23:51;;;;;;;15.05;3.38;;;10.00;99.90;;;;;;5072555;28;20032;-65
2023/10/30 03:26:16;;;;;;;12.60;2.60;;;10.00;99.90;;;;;;5072586;28;20028;-66
2023/10/30 03:28:42;;;;;;;16.70;3.10;;;10.00;99.90;;;;;;5072860;28;20029;-66
2023/10/30 03:31:09;;;;;;;15.38;2.92;;;10.00;99.90;;;;;;5072805;28;20033;-66
2023/10/30 03:33:35;;;;;;;12.20;2.75;;;10.00;99.90;;;;;;5071046;28;20120;-66
2023/10/30 03:36:02;;;;;;;14.68;3.25;;;10.00;99.90;;;;;;5073016;28;20159;-66
2023/10/30 03:38:27;;;;;;;15.00;3.03;;;10.00;99.90;;;;;;5072683;28;20480;-67
2023/10/30 03:40:53;;;;;;;10.63;2.40;;;10.00;99.90;;;;;;5072868;28;20024;-66
2023/10/30 03:43:18;;;;;;;14.20;3.63;;;10.00;99.90;;;;;;5072496;28;20039;-66
2023/10/30 03:45:44;;;;;;;14.38;3.20;;;10.00;99.90;;;;;;5071193;28;20033;-66
2023/10/30 03:48:09;;;;;;;15.05;2.40;;;9.90;99.90;;;;;;5072163;28;20031;-66
2023/10/30 03:50:35;;;;;;;14.50;3.33;;;9.90;99.90;;;;;;5072350;28;20519;-66
2023/10/30 03:53:01;;;;;;;16.67;3.20;;;9.90;99.90;;;;;;5072464;28;20025;-66
2023/10/30 03:55:26;;;;;;;15.98;3.55;;;9.90;99.90;;;;;;5072858;28;20036;-66
2023/10/30 03:57:52;;;;;;;17.45;2.95;;;9.90;99.90;;;;;;5072531;28;20040;-66
2023/10/30 04:00:18;;;;;;;17.83;3.20;;;10.00;99.90;;;;;;5076132;28;20029;-66
2023/10/30 04:02:43;;;;;;;14.25;3.20;;;9.90;99.90;;;;;;5076025;28;20055;-66
2023/10/30 04:05:09;;;;;;;16.30;3.00;;;9.90;99.90;;;;;;5076359;28;20016;-66
2023/10/30 04:07:35;;;;;;;16.13;3.92;;;10.00;99.90;;;;;;5076157;28;20352;-66
2023/10/30 04:10:00;;;;;;;10.20;2.50;;;9.90;99.90;;;;;;5074552;28;20029;-65
2023/10/30 04:12:26;;;;;;;17.38;3.60;;;9.90;99.90;;;;;;5076011;28;20060;-66
2023/10/30 04:14:52;;;;;;;17.00;2.90;;;10.00;99.90;;;;;;5075994;28;20029;-66
2023/10/30 04:17:17;;;;;;;14.90;2.50;;;10.00;99.90;;;;;;5075721;28;20107;-66
2023/10/30 04:19:43;;;;;;;11.32;2.58;;;10.00;99.90;;;;;;5075761;28;20112;-66
2023/10/30 04:22:08;;;;;;;17.63;3.10;;;10.00;99.90;;;;;;5075397;28;20392;-66
2023/10/30 04:24:34;;;;;;;22.30;3.33;;;10.00;99.90;;;;;;5075849;28;20030;-66
2023/10/30 04:27:00;;;;;;;15.65;3.13;;;10.00;99.90;;;;;;5075807;28;20028;-67
2023/10/30 04:29:26;;;;;;;18.80;2.83;;;10.00;99.90;;;;;;5075630;28;20435;-66
2023/10/30 04:31:51;;;;;;;14.10;3.58;;;10.00;99.90;;;;;;5075372;28;20039;-66
2023/10/30 04:34:18;;;;;;;17.15;3.67;;;10.00;99.90;;;;;;5075042;28;20376;-66
2023/10/30 04:36:44;;;;;;;15.27;3.40;;;10.00;99.90;;;;;;5075725;28;20095;-66
2023/10/30 04:39:10;;;;;;;15.32;3.38;;;10.00;99.90;;;;;;5075454;28;20046;-66
2023/10/30 04:41:36;;;;;;;18.65;3.38;;;10.00;99.90;;;;;;5075470;28;20032;-67
2023/10/30 04:44:02;;;;;;;21.52;5.03;;;10.00;99.90;;;;;;5075364;28;20484;-67
2023/10/30 04:46:28;;;;;;;15.15;3.05;;;10.00;99.90;;;;;;5074817;28;20086;-66
2023/10/30 04:48:54;;;;;;;18.13;3.20;;;10.00;99.90;;;;;;5075454;28;20028;-66
2023/10/30 04:51:19;;;;;;;15.20;3.28;;;10.00;99.90;;;;;;5075241;28;20365;-66
2023/10/30 04:53:45;;;;;;;15.40;3.38;;;10.00;99.90;;;;;;5075030;28;20057;-66
2023/10/30 04:56:10;;;;;;;16.48;3.55;;;10.00;99.90;;;;;;5075284;28;20021;-67
2023/10/30 04:58:36;;;;;;;13.65;3.22;;;10.00;99.90;;;;;;5074813;28;20114;-66
2023/10/30 05:01:09;;;;;;;21.80;4.07;;;10.00;99.90;;;;;;5074727;28;20028;-66
2023/10/30 05:03:38;;;;;;;15.65;3.50;;;10.00;99.90;;;;;;5075425;28;20052;-66
2023/10/30 05:06:05;;;;;;;17.05;3.50;;;10.00;99.90;;;;;;5073900;28;20081;-66
2023/10/30 05:08:30;;;;;;;12.05;3.33;;;10.00;99.90;;;;;;5074350;28;20028;-67
2023/10/30 05:10:56;;;;;;;18.75;3.28;;;10.00;99.90;;;;;;5073913;28;20047;-66
2023/10/30 05:13:22;;;;;;;19.83;3.75;;;9.90;99.90;;;;;;5074815;28;20381;-66
2023/10/30 05:15:47;;;;;;;17.05;3.40;;;10.00;99.90;;;;;;5074757;28;20020;-66
2023/10/30 05:18:13;;;;;;;14.00;3.15;;;10.00;99.90;;;;;;5074592;28;20044;-67
2023/10/30 05:20:39;;;;;;;12.35;2.85;;;10.00;99.90;;;;;;5074060;28;20028;-67
2023/10/30 05:23:04;;;;;;;14.43;3.53;;;10.00;99.90;;;;;;5074601;28;20031;-66
2023/10/30 05:25:30;;;;;;;19.13;3.33;;;10.10;99.90;;;;;;5074732;28;20035;-66
2023/10/30 05:27:57;;;;;;;13.88;3.05;;;10.10;99.90;;;;;;5074271;28;20292;-67
2023/10/30 05:30:22;;;;;;;17.55;3.63;;;10.10;99.90;;;;;;5074427;28;20078;-66
2023/10/30 05:32:48;;;;;;;14.35;3.22;;;10.10;99.90;;;;;;5074147;28;20016;-67
2023/10/30 05:35:13;;;;;;;18.80;3.30;;;10.10;99.90;;;;;;5074824;28;20028;-66
2023/10/30 05:37:39;;;;;;;19.27;3.25;;;10.20;99.90;;;;;;5074594;28;20036;-66
2023/10/30 05:40:07;;;;;;;16.75;3.47;;;10.20;99.90;;;;;;5074169;28;20051;-66
2023/10/30 05:42:33;;;;;;;13.88;2.97;;;10.20;99.90;;;;;;5073724;28;20028;-66
2023/10/30 05:44:58;;;;;;;19.83;3.38;;;10.30;99.90;;;;;;5073795;28;20075;-67
2023/10/30 05:47:24;;;;;;;10.55;3.05;;;10.30;99.90;;;;;;5074403;28;20025;-66
2023/10/30 05:49:50;;;;;;;11.93;3.20;;;10.30;99.90;;;;;;5074515;28;20021;-66
2023/10/30 05:52:15;;;;;;;20.83;3.10;;;10.30;99.90;;;;;;5074047;28;20056;-66
2023/10/30 05:54:41;;;;;;;21.10;3.60;;;10.40;99.90;;;;;;5073961;28;20507;-66
2023/10/30 05:57:06;;;;;;;16.33;3.30;;;10.40;99.90;;;;;;5073106;28;20537;-66
2023/10/30 05:59:32;;;;;;;19.25;3.70;;;10.40;99.90;;;;;;5075706;28;20052;-67
2023/10/30 06:01:58;;;;;;;19.17;3.50;;;10.50;99.90;;;;;;5094228;28;20047;-66
2023/10/30 06:04:24;;;;;;;13.13;3.25;;;10.50;99.90;;;;;;5094243;28;20107;-66
2023/10/30 06:06:49;;;;;;;13.68;3.05;;;10.50;99.90;;;;;;5090926;28;20032;-66
2023/10/30 06:09:15;;;;;;;14.77;3.33;;;10.60;99.90;;;;;;5073849;28;20294;-67
2023/10/30 06:11:41;;;;;;;15.93;2.90;;;10.60;99.90;;;;;;5073548;28;20028;-66
2023/10/30 06:14:07;;;;;;;20.17;3.53;;;10.60;99.90;;;;;;5073846;28;20024;-66
2023/10/30 06:16:32;;;;;;;13.85;3.08;;;10.60;99.90;;;;;;5073582;28;20029;-66
2023/10/30 06:18:58;;;;;;;16.25;3.20;;;10.60;99.90;;;;;;5073137;28;20051;-67
2023/10/30 06:21:23;;;;;;;15.93;3.28;;;10.60;99.90;;;;;;5073058;28;20380;-66
2023/10/30 06:23:49;;;;;;;17.60;3.15;;;10.60;99.90;;;;;;5073767;28;20513;-66
2023/10/30 06:26:14;;;;;;;15.50;3.58;;;10.60;99.90;;;;;;5073573;28;20024;-67
2023/10/30 06:28:41;;;;;;;14.48;2.78;;;10.60;99.90;;;;;;5073099;28;20032;-66
2023/10/30 06:31:14;;;;;;;17.90;3.67;;;10.60;99.90;;;;;;5072871;28;20169;-67
2023/10/30 06:33:40;;;;;;;15.25;3.15;;;10.60;99.90;;;;;;5053436;28;20029;-67
2023/10/30 06:36:06;;;;;;;17.52;3.55;;;10.60;99.90;;;;;;5053588;28;20449;-66
2023/10/30 06:38:33;;;;;;;19.08;3.58;;;10.60;99.90;;;;;;5053105;28;20037;-66
2023/10/30 06:40:58;;;;;;;18.33;3.92;;;10.70;99.90;;;;;;5063186;28;20477;-66
2023/10/30 06:43:24;;;;;;;17.08;3.63;;;10.70;99.90;;;;;;5072811;28;20139;-66
2023/10/30 06:45:57;;;;;;;21.35;3.60;;;10.70;99.90;;;;;;5073228;28;20024;-66
2023/10/30 06:48:22;;;;;;;19.52;3.80;;;10.70;99.90;;;;;;5073187;28;20081;-67
2023/10/30 06:50:48;;;;;;;16.13;3.53;;;10.70;99.90;;;;;;5072644;28;20111;-66
2023/10/30 06:53:13;;;;;;;14.43;3.15;;;10.70;99.90;;;;;;5073191;28;20071;-67
2023/10/30 06:55:39;;;;;;;17.23;3.42;;;10.70;99.90;;;;;;5072668;28;20111;-67
2023/10/30 06:58:05;;;;;;;18.20;3.83;;;10.70;99.90;;;;;;5070259;28;20051;-67
2023/10/30 07:00:30;;;;;;;16.15;3.13;;;10.70;99.90;;;;;;5082067;28;20028;-66
2023/10/30 07:02:56;;;;;;;19.15;3.85;;;10.70;99.90;;;;;;5058881;28;20057;-67
2023/10/30 07:05:21;;;;;;;16.92;4.00;;;10.60;99.90;;;;;;5049836;28;20092;-66
2023/10/30 07:07:47;;;;;;;19.65;3.50;;;10.70;99.90;;;;;;5060266;28;20117;-66
2023/10/30 07:10:13;;;;;;;17.08;3.65;;;10.60;99.90;;;;;;5070609;28;20016;-67
2023/10/30 07:12:38;;;;;;;17.38;3.80;;;10.70;99.90;;;;;;5071021;28;20554;-67
2023/10/30 07:15:05;;;;;;;17.40;3.55;;;10.60;99.90;;;;;;5070993;28;20027;-67
2023/10/30 07:17:31;;;;;;;20.85;4.53;;;10.60;99.90;;;;;;5071021;28;20020;-67
2023/10/30 07:19:57;;;;;;;19.15;4.53;;;10.60;99.90;;;;;;5071469;28;20090;-67
2023/10/30 07:22:22;;;;;;;20.55;4.03;;;10.70;99.90;;;;;;5071979;28;20479;-66
2023/10/30 07:24:48;;;;;;;22.25;4.32;;;10.70;99.90;;;;;;5072627;28;20027;-66
2023/10/30 07:27:14;;;;;;;15.40;3.55;;;10.70;99.90;;;;;;5072025;28;20043;-66
2023/10/30 07:29:39;;;;;;;20.15;4.85;;;10.70;99.90;;;;;;5072972;28;20032;-67
2023/10/30 07:32:05;;;;;;;17.13;3.75;;;10.70;99.90;;;;;;5072428;28;20036;-66
2023/10/30 07:34:30;;;;;;;21.98;4.20;;;10.80;99.90;;;;;;5075847;28;20025;-67
2023/10/30 07:36:57;;;;;;;21.60;3.88;;;10.80;99.90;;;;;;5076709;28;20032;-67
2023/10/30 07:39:23;;;;;;;13.63;4.15;;;10.90;99.90;;;;;;5076239;28;20094;-66
2023/10/30 07:41:48;;;;;;;15.95;4.90;;;10.90;99.90;;;;;;5075192;28;20048;-67
2023/10/30 07:44:14;;;;;;;20.05;5.32;;;10.90;99.90;;;;;;5075698;28;20036;-66
2023/10/30 07:46:41;;;;;;;23.70;6.18;;;10.90;99.90;;;;;;5075377;28;20024;-67
2023/10/30 07:49:07;;;;;;;19.20;4.03;;;11.00;99.90;;;;;;5076356;28;20036;-66
2023/10/30 07:51:33;;;;;;;18.65;4.38;;;11.00;99.90;;;;;;5076560;28;20472;-66
2023/10/30 07:53:59;;;;;;;16.25;4.30;;;11.00;99.90;;;;;;5075751;28;20053;-67
2023/10/30 07:56:24;;;;;;;19.92;4.32;;;11.10;99.90;;;;;;5076046;28;20036;-66
2023/10/30 07:58:51;;;;;;;20.30;7.22;;;11.10;99.90;;;;;;5075793;28;20144;-66
2023/10/30 08:01:20;;;;;;;16.20;3.40;;;11.10;99.90;;;;;;5076363;28;20146;-66
2023/10/30 08:03:46;;;;;;;21.95;4.10;;;11.20;99.90;;;;;;5075479;28;20024;-66
2023/10/30 08:06:12;;;;;;;19.02;4.05;;;11.30;99.90;;;;;;5075865;28;20024;-66
2023/10/30 08:08:38;;;;;;;19.40;3.85;;;11.30;99.90;;;;;;5075793;28;20028;-67
2023/10/30 08:11:03;;;;;;;21.00;4.80;;;11.40;99.90;;;;;;5075937;28;20104;-67
2023/10/30 08:13:30;;;;;;;15.10;4.30;;;11.40;99.90;;;;;;5075458;28;20368;-66
2023/10/30 08:15:55;;;;;;;21.58;4.35;;;11.40;99.90;;;;;;5076101;28;20032;-67
2023/10/30 08:18:21;;;;;;;28.88;5.80;;;11.40;99.90;;;;;;5075725;28;20556;-66
2023/10/30 08:20:47;;;;;;;21.55;4.82;;;11.50;99.90;;;;;;5075854;28;20392;-66
2023/10/30 08:23:12;;;;;;;19.75;4.82;;;11.50;99.90;;;;;;5075215;28;20036;-67
2023/10/30 08:25:38;;;;;;;17.23;3.80;;;11.60;99.90;;;;;;5075391;28;20059;-67
2023/10/30 08:28:04;;;;;;;18.98;3.85;;;11.70;99.90;;;;;;5075677;28;20395;-66
2023/10/30 08:30:29;;;;;;;14.80;3.85;;;11.70;99.90;;;;;;5075588;28;20027;-67
2023/10/30 08:32:56;;;;;;;17.95;4.13;;;11.90;99.90;;;;;;5075219;28;20025;-66
2023/10/30 08:35:22;;;;;;;15.52;4.45;;;12.00;99.90;;;;;;5075322;28;20032;-66
2023/10/30 08:37:48;;;;;;;20.65;7.38;;;12.10;99.90;;;;;;5075203;28;20032;-66
2023/10/30 08:40:13;;;;;;;14.65;3.65;;;12.20;99.90;;;;;;5075412;28;20346;-67
2023/10/30 08:42:39;;;;;;;20.65;4.90;;;12.30;99.90;;;;;;5075519;28;20079;-67
2023/10/30 08:45:07;;;;;;;18.88;3.92;;;12.40;99.90;;;;;;5075181;28;20517;-66
2023/10/30 08:47:32;;;;;;;17.63;4.00;;;12.50;99.90;;;;;;5075094;28;20024;-66
2023/10/30 08:49:58;;;;;;;14.88;4.15;;;12.70;99.90;;;;;;5075219;28;20074;-66
2023/10/30 08:52:23;;;;;;;17.48;3.92;;;13.00;99.90;;;;;;5074982;28;20024;-66
2023/10/30 08:54:49;;;;;;;18.55;5.00;;;13.10;99.90;;;;;;5075492;28;20439;-67
2023/10/30 08:57:19;;;;;;;18.48;4.70;;;13.20;99.90;;;;;;5074812;28;20090;-67
2023/10/30 08:59:44;;;;;;;14.65;3.50;;;13.40;99.90;;;;;;5074919;28;20521;-67
2023/10/30 09:02:10;;;;;;;15.68;3.25;;;13.60;99.90;;;;;;5075392;28;20067;-67
2023/10/30 09:04:36;;;;;;;18.85;5.00;;;13.80;99.90;;;;;;5075057;28;20021;-67
2023/10/30 09:07:02;;;;;;;15.88;3.72;;;14.00;99.90;;;;;;5074995;28;20058;-67
2023/10/30 09:09:28;;;;;;;12.32;3.50;;;14.10;99.90;;;;;;5074634;28;20060;-67
2023/10/30 09:11:53;;;;;;;18.02;3.70;;;14.40;99.90;;;;;;5074962;28;20048;-67
2023/10/30 09:14:19;;;;;;;15.45;3.70;;;14.80;99.90;;;;;;5074980;28;20050;-66
2023/10/30 09:16:45;;;;;;;16.35;3.15;;;15.00;99.90;;;;;;5074605;28;20020;-67
2023/10/30 09:19:10;;;;;;;12.48;3.50;;;15.20;99.90;;;;;;5074681;28;20083;-67
2023/10/30 09:21:36;;;;;;;18.00;3.70;;;15.30;99.90;;;;;;5074254;28;20095;-66
2023/10/30 09:24:02;;;;;;;21.23;3.97;;;15.40;99.90;;;;;;5074742;28;20105;-66
2023/10/30 09:26:28;;;;;;;13.38;3.05;;;15.40;99.90;;;;;;5074106;28;20032;-67
2023/10/30 09:28:54;;;;;;;16.13;3.17;;;15.60;99.90;;;;;;5075002;28;20035;-67
2023/10/30 09:31:20;;;;;;;12.98;3.50;;;16.00;99.90;;;;;;5074593;28;20021;-67
2023/10/30 09:33:46;;;;;;;15.95;3.40;;;16.50;99.90;;;;;;5074094;28;20460;-67
2023/10/30 09:36:12;;;;;;;12.57;3.22;;;16.70;99.90;;;;;;5074393;28;20032;-67
2023/10/30 09:38:37;;;;;;;17.52;3.70;;;16.90;99.90;;;;;;5074265;28;20048;-67
2023/10/30 09:41:05;;;;;;;12.05;3.10;;;17.30;99.90;;;;;;5074243;28;20377;-67
2023/10/30 09:43:33;;;;;;;13.50;3.25;;;17.70;99.90;;;;;;5074422;28;20029;-67
2023/10/30 09:46:00;;;;;;;12.45;2.72;;;17.70;99.90;;;;;;5073861;28;20054;-67
2023/10/30 09:48:28;;;;;;;12.20;3.13;;;17.70;99.90;;;;;;5074034;28;20036;-66
2023/10/30 09:50:54;;;;;;;14.05;3.08;;;17.40;99.90;;;;;;5074743;28;20062;-67
2023/10/30 09:53:21;;;;;;;12.85;4.18;;;17.20;99.90;;;;;;5074035;28;20048;-66
2023/10/30 09:55:49;;;;;;;12.75;2.70;;;17.40;99.90;;;;;;5073602;28;20067;-67
2023/10/30 09:58:15;;;;;;;13.52;2.65;;;18.00;99.90;;;;;;5073728;28;20054;-67
2023/10/30 10:00:44;;;;;;;11.27;2.72;;;18.10;99.90;;;;;;5073771;28;20032;-67
2023/10/30 10:03:10;;;;;;;17.23;3.00;;;18.00;99.90;;;;;;5073865;28;20364;-67
2023/10/30 10:05:35;;;;;;;16.42;2.92;;;17.60;99.90;;;;;;5073980;28;20028;-67
2023/10/30 10:08:01;;;;;;;12.00;2.42;;;17.40;99.90;;;;;;5073726;28;20032;-67
2023/10/30 10:10:27;;;;;;;15.43;3.30;;;17.40;99.90;;;;;;5072910;28;20036;-67
2023/10/30 10:12:54;;;;;;;16.27;3.90;;;17.40;99.90;;;;;;5091659;28;20027;-67
2023/10/30 10:15:20;;;;;;;16.45;3.53;;;17.30;99.90;;;;;;5072372;28;20389;-67
2023/10/30 10:17:46;;;;;;;11.50;2.78;;;17.00;99.90;;;;;;5079894;28;20024;-66
2023/10/30 10:20:12;;;;;;;12.93;2.88;;;16.70;99.90;;;;;;5093880;28;20543;-67
2023/10/30 10:22:39;;;;;;;14.32;3.15;;;16.50;99.90;;;;;;5075724;28;20538;-67
2023/10/30 10:25:10;;;;;;;13.65;3.22;;;16.30;99.90;;;;;;5073392;28;20389;-66
2023/10/30 10:27:37;;;;;;;12.73;3.17;;;16.00;99.90;;;;;;5090779;28;20028;-66
2023/10/30 10:30:05;;;;;;;17.05;3.38;;;16.20;99.90;;;;;;5093751;28;20115;-67
2023/10/30 10:32:32;;;;;;;15.48;3.15;;;16.60;99.90;;;;;;5093890;28;20024;-67
2023/10/30 10:35:01;;;;;;;12.98;2.90;;;17.20;99.90;;;;;;5072964;28;20530;-67
2023/10/30 10:37:27;;;;;;;14.15;2.72;;;17.80;99.90;;;;;;5073347;28;20124;-67
2023/10/30 10:39:54;;;;;;;12.13;3.17;;;18.20;99.90;;;;;;5073415;28;20112;-67
2023/10/30 10:42:21;;;;;;;15.45;3.92;;;18.50;99.90;;;;;;5073276;28;20031;-67
2023/10/30 10:44:48;;;;;;;16.27;3.10;;;18.90;99.90;;;;;;5087376;28;20102;-67
2023/10/30 10:47:14;;;;;;;11.82;3.08;;;19.00;99.90;;;;;;5073493;28;20029;-67
2023/10/30 10:49:41;;;;;;;15.60;3.17;;;19.40;99.90;;;;;;5073167;28;20385;-67
2023/10/30 10:52:12;;;;;;;11.13;2.80;;;19.70;99.90;;;;;;5073450;28;20021;-67
2023/10/30 10:54:54;;;;;;;10.53;3.20;;;20.00;99.90;;;;;;5073147;28;20048;-67
2023/10/30 10:57:21;;;;;;;14.35;3.17;;;20.60;99.90;;;;;;5072571;28;20040;-67
2023/10/30 10:59:53;;;;;;;11.70;2.85;;;21.10;99.90;;;;;;5073500;28;20036;-67
2023/10/30 11:02:27;;;;;;;11.13;2.97;;;21.40;99.90;;;;;;5073240;28;20104;-67
2023/10/30 11:04:54;;;;;;;11.60;2.67;;;21.50;99.90;;;;;;5072690;28;20033;-67
2023/10/30 11:07:31;;;;;;;17.30;3.33;;;20.70;99.90;;;;;;5074156;28;20016;-67
2023/10/30 11:10:03;;;;;;;17.60;3.30;;;20.20;99.90;;;;;;5076871;28;20033;-67
2023/10/30 11:12:43;;;;;;;;;;;20.00;99.90;;;;;;5077554;28;20056;-67
2023/10/30 11:15:20;;;;;;;16.00;3.53;;;19.80;99.90;;;;;;5077102;28;19911;-66
2023/10/30 11:18:23;;;;;;;11.68;3.83;;;19.40;99.90;;;;;;5085599;28;20032;-67
2023/10/30 11:21:09;;;;;;;14.93;3.30;;;18.90;99.90;;;;;;5074569;28;20033;-67
2023/10/30 11:23:44;;;;;;;12.43;3.22;;;18.50;99.90;;;;;;5075809;28;20546;-65
2023/10/30 11:26:10;;;;;;;11.13;3.05;;;18.20;99.90;;;;;;5076777;28;20024;-66
2023/10/30 11:28:37;;;;;;;17.45;5.13;;;17.80;99.90;;;;;;5069958;28;20487;-67
2023/10/30 11:31:07;;;;;;;16.42;4.38;;;17.60;99.90;;;;;;5076892;28;20500;-67
2023/10/30 11:33:33;;;;;;;20.25;4.30;;;17.60;99.90;;;;;;5077336;28;20040;-65
2023/10/30 11:36:19;;;;;;;14.70;3.22;;;17.40;99.90;;;;;;5076589;28;20024;-65
2023/10/30 11:39:10;;;;;;;17.58;3.30;;;17.10;99.90;;;;;;5067726;28;20033;-65
2023/10/30 11:41:44;;;;;;;16.73;3.55;;;16.70;99.90;;;;;;5076606;28;20039;-65
2023/10/30 11:44:10;;;;;;;11.57;3.80;;;16.60;99.90;;;;;;5076737;28;20419;-65
2023/10/30 11:46:49;;;;;;;13.98;3.60;;;16.50;99.90;;;;;;5076435;28;20028;-65
2023/10/30 11:49:16;;;;;;;15.45;3.40;;;16.50;99.90;;;;;;5075795;28;20024;-65
2023/10/30 11:51:42;;;;;;;12.45;3.38;;;16.40;99.90;;;;;;5076937;28;20032;-65
2023/10/30 11:54:08;;;;;;;16.30;3.53;;;16.30;99.90;;;;;;5075516;28;20511;-66
2023/10/30 11:56:34;;;;;;;14.75;3.13;;;16.20;99.90;;;;;;5072585;28;20082;-67
2023/10/30 11:58:59;;;;;;;15.52;3.22;;;16.20;99.90;;;;;;5076058;28;20037;-67
2023/10/30 12:01:25;;;;;;;15.60;4.15;;;16.30;99.90;;;;;;5075658;28;20065;-67
2023/10/30 12:03:51;;;;;;;16.33;3.35;;;16.40;99.90;;;;;;5076032;28;20029;-67
2023/10/30 12:06:16;;;;;;;17.77;4.40;;;16.50;99.90;;;;;;5076255;28;20389;-65
2023/10/30 12:08:42;;;;;;;14.93;3.50;;;16.40;99.90;;;;;;5076338;28;20119;-67
2023/10/30 12:11:08;;;;;;;15.98;3.75;;;16.40;99.90;;;;;;5076341;28;20032;-67
2023/10/30 12:13:34;;;;;;;15.50;3.40;;;16.40;99.90;;;;;;5075696;28;20032;-65
2023/10/30 12:16:00;;;;;;;13.82;3.25;;;16.40;99.90;;;;;;5076361;28;20083;-65
2023/10/30 12:18:26;;;;;;;13.07;3.03;;;16.30;99.90;;;;;;5075063;28;20484;-65
2023/10/30 12:20:52;;;;;;;11.90;3.20;;;16.40;99.90;;;;;;5075886;28;20365;-66
2023/10/30 12:23:17;;;;;;;14.93;3.22;;;16.30;99.90;;;;;;5075743;28;20041;-66
2023/10/30 12:25:44;;;;;;;14.73;3.17;;;16.30;99.90;;;;;;5075687;28;20043;-66
2023/10/30 12:28:09;;;;;;;17.65;3.60;;;16.30;99.90;;;;;;5075149;28;20036;-66
2023/10/30 12:30:36;;;;;;;17.52;3.53;;;16.20;99.90;;;;;;5075952;28;20078;-65
2023/10/30 12:33:01;;;;;;;16.05;4.18;;;16.30;99.90;;;;;;5075108;28;20024;-65
2023/10/30 12:35:27;;;;;;;20.77;3.63;;;16.30;99.90;;;;;;5075716;28;20158;-66